Latest Weather Observations for Archerfield

IDQ60801

Issued at 4:22 am EST Tuesday 19 January 2021 (issued every 10 minutes, with the page automatically refreshed every 10 minutes)

About weather observations | Map of weather stations | Latest weather observations for QLD | Other Formats
Station Details ID: 040211 Name: ARCHERFIELD AIRPORT Lat: -27.57 Lon: 153.01 Height: 12.5 m
Data from the previous 72 hours. | See also: Recent months at Archerfield
Date/Time
EST
Temp
°C
App
Temp
°C
Dew
Point
°C
Rel
Hum
%
Delta-T
°C
Wind Press
QNH
hPa
Press
MSL
hPa
Rain since
9am
mm
Dir  Spd
km/h
Gust
km/h
Spd
kts
Gust
kts
19/04:00am 20.0 21.9 18.5 91 0.9 ESE 6 9 3 5 1012.4 1012.3 18.6
19/03:45am 20.1 22.8 18.6 91 0.9 SSW 2 11 1 6 1012.4 1012.3 18.6
19/03:30am 20.1 21.1 18.6 91 0.9 SW 11 15 6 8 1012.5 1012.4 18.6
19/03:00am 20.0 19.9 18.8 93 0.8 W 17 20 9 11 1012.9 1012.8 18.6
19/02:42am 20.1 21.6 18.8 92 0.8 SW 9 11 5 6 1012.0 1011.9 18.6
19/02:30am 20.0 21.9 18.5 91 0.9 ENE 6 9 3 5 1011.9 1011.8 18.6
19/02:00am 20.0 22.5 18.1 89 1.2 ESE 2 9 1 5 1013.0 1012.9 18.4
19/01:30am 20.2 21.9 18.1 88 1.3 SE 6 11 3 6 1013.7 1013.6 18.4
19/01:00am 20.3 18.8 17.7 85 1.6 E 22 32 12 17 1013.8 1013.7 18.2
19/12:30am 20.2 21.2 17.8 86 1.5 SE 9 15 5 8 1014.5 1014.4 18.0
19/12:00am 19.8 20.9 17.9 89 1.2 E 9 19 5 10 1014.2 1014.1 18.0
 
Date/Time
EST
Temp
°C
App
Temp
°C
Dew
Point
°C
Rel
Hum
%
Delta-T
°C
Wind Press
QNH
hPa
Press
MSL
hPa
Rain since
9am
mm
Dir  Spd
km/h
Gust
km/h
Spd
kts
Gust
kts
18/11:30pm 19.8 18.0 17.9 89 1.2 E 24 32 13 17 1014.6 1014.5 17.6
18/11:22pm 19.9 19.1 18.0 89 1.2 ESE 19 28 10 15 1015.1 1015.0 17.4
18/11:10pm 19.7 19.4 18.2 91 0.9 SE 17 22 9 12 1015.4 1015.3 17.2
18/11:05pm 19.7 19.5 18.4 92 0.8 SE 17 20 9 11 1015.4 1015.3 17.2
18/11:00pm 19.6 19.7 18.3 92 0.8 SE 15 20 8 11 1015.5 1015.4 17.0
18/10:36pm 19.6 20.4 18.1 91 0.9 SSE 11 17 6 9 1016.0 1015.9 15.8
18/10:30pm 19.6 20.4 18.1 91 0.9 S 11 17 6 9 1016.0 1015.9 15.2
18/10:00pm 19.8 19.1 18.3 91 0.9 S 19 28 10 15 1016.1 1016.0 14.6
18/09:45pm 19.7 18.4 18.2 91 0.9 S 22 32 12 17 1016.0 1015.9 14.6
18/09:34pm 19.8 19.0 18.5 92 0.8 SSW 20 30 11 16 1015.9 1015.8 14.2
18/09:30pm 19.9 19.4 18.6 92 0.8 SSW 19 28 10 15 1015.9 1015.8 14.2
18/09:09pm 20.1 19.6 18.6 91 0.9 SSW 19 24 10 13 1015.8 1015.7 13.4
18/09:00pm 20.3 19.7 18.8 91 0.9 SSW 20 28 11 15 1015.8 1015.7 12.8
18/08:42pm 20.7 20.9 19.4 92 0.8 S 17 24 9 13 1015.6 1015.5 12.4
18/08:30pm 20.7 19.6 18.6 88 1.3 SSE 22 39 12 21 1015.3 1015.2 12.2
18/08:21pm 21.4 21.8 19.9 91 1.0 S 17 24 9 13 1015.2 1015.1 11.8
18/08:00pm 21.5 23.3 20.3 93 0.8 SW 11 15 6 8 1014.6 1014.5 11.0
18/07:30pm 21.4 23.5 20.2 93 0.8 SW 9 15 5 8 1013.7 1013.6 10.6
18/07:18pm 21.2 22.4 19.8 92 0.9 SW 13 19 7 10 1013.6 1013.5 10.6
18/07:00pm 21.1 23.0 19.7 92 0.9 SW 9 15 5 8 1013.7 1013.6 10.0
18/06:54pm 21.0 22.9 19.7 92 0.8 SW 9 13 5 7 1013.6 1013.5 9.6
18/06:40pm 21.1 21.8 19.6 91 1.0 SSW 15 20 8 11 1013.2 1013.1 9.0
18/06:39pm 21.1 21.8 19.6 91 1.0 SSW 15 22 8 12 1013.2 1013.1 8.8
18/06:30pm 21.1 20.9 19.4 90 1.1 SSW 19 26 10 14 1013.2 1013.1 8.2
18/06:02pm 21.1 18.4 18.5 85 1.6 SSE 30 44 16 24 1012.9 1012.8 4.4
18/06:00pm 21.1 18.1 18.7 86 1.5 SSE 32 44 17 24 1012.8 1012.7 4.2
18/05:57pm 21.4 19.2 18.8 85 1.6 SSE 28 44 15 24 1012.8 1012.7 4.0
18/05:52pm 21.8 20.3 18.6 82 2.0 S 24 35 13 19 1012.8 1012.7 3.6
18/05:30pm 25.2 29.1 22.5 85 1.8 NNE 6 13 3 7 1011.9 1011.8 2.2
18/05:17pm 25.2 28.0 22.3 84 1.9 NNE 11 19 6 10 1011.4 1011.3 1.0
18/05:00pm 25.2 26.2 21.7 81 2.3 NNE 19 24 10 13 1011.2 1011.1 0.4
18/04:30pm 26.8 26.5 21.1 71 3.8 NNE 24 33 13 18 1010.8 1010.7 0.0
18/04:00pm 26.8 27.4 21.3 72 3.7 NE 20 28 11 15 1010.6 1010.5 0.0
18/03:30pm 26.0 27.4 21.9 78 2.7 NE 17 22 9 12 1011.1 1011.0 0.0
18/03:00pm 26.9 25.1 20.3 67 4.3 NNE 30 39 16 21 1011.2 1011.1 0.0
18/02:30pm 28.7 25.9 18.2 53 6.7 NNE 30 37 16 20 1011.3 1011.2 0.0
18/02:00pm 29.1 27.7 20.5 59 5.7 NNE 28 39 15 21 1011.7 1011.6 0.0
18/01:30pm 29.0 27.5 20.2 59 5.8 NE 28 37 15 20 1012.1 1012.0 0.0
18/01:00pm 28.9 27.1 19.5 57 6.1 NE 28 35 15 19 1012.5 1012.4 0.0
18/12:30pm 28.7 28.0 20.2 60 5.6 ENE 24 37 13 20 1012.8 1012.7 0.0
18/12:00pm 29.3 29.2 19.9 57 6.2 ENE 20 32 11 17 1013.2 1013.1 0.0
18/11:30am 29.0 28.6 20.2 59 5.8 ENE 22 33 12 18 1013.6 1013.5 0.0
18/11:00am 28.3 27.6 20.3 62 5.3 ENE 24 30 13 16 1013.9 1013.8 0.0
18/10:30am 27.6 27.6 20.9 67 4.4 NE 22 30 12 16 1014.0 1013.9 0.0
18/10:00am 29.0 29.3 20.4 59 5.7 NE 19 28 10 15 1014.1 1014.0 0.0
18/09:30am 28.2 29.4 21.5 67 4.5 E 17 28 9 15 1014.2 1014.1 0.0
18/09:00am 28.2 30.9 22.2 70 4.0 E 11 15 6 8 1014.4 1014.3 0.0
18/08:30am 26.7 28.2 20.5 69 4.1 ENE 13 15 7 8 1014.5 1014.4 0.0
18/08:00am 27.2 30.1 21.0 69 4.1 ESE 7 13 4 7 1014.6 1014.5 0.0
18/07:30am 25.8 29.2 21.0 75 3.2 ESE 4 9 2 5 1014.5 1014.4 0.0
18/07:00am 25.1 27.4 20.6 76 2.9 S 9 13 5 7 1014.4 1014.3 0.0
18/06:30am 24.2 26.1 20.5 80 2.4 S 11 15 6 8 1014.1 1014.0 0.0
18/06:00am 22.8 24.8 20.0 84 1.8 SSW 9 13 5 7 1013.7 1013.6 0.0
18/05:30am 22.7 25.0 19.9 84 1.8 S 7 11 4 6 1013.3 1013.2 0.0
18/05:00am 22.9 24.9 19.9 83 1.9 S 9 13 5 7 1013.0 1012.9 0.0
18/04:55am 23.0 25.1 20.1 84 1.9 S 9 13 5 7 1013.1 1013.0 0.0
18/04:45am 23.2 25.0 20.3 84 1.9 S 11 13 6 7 1013.0 1012.9 0.0
18/04:30am 23.2 25.0 20.3 84 1.9 SSW 11 15 6 8 1012.9 1012.8 0.0
18/04:08am 23.3 25.6 20.6 85 1.8 SSW 9 11 5 6 1012.7 1012.6 0.0
18/04:00am 23.3 26.0 20.6 85 1.8 SSW 7 9 4 5 1012.6 1012.5 0.0
18/03:55am 23.2 25.7 20.3 84 1.9 SSW 7 9 4 5 1012.5 1012.4 0.0
18/03:30am 23.1 24.9 20.4 85 1.8 SSW 11 13 6 7 1012.4 1012.3 0.0
18/03:15am 23.2 25.4 20.3 84 1.9 SSW 9 11 5 6 1012.4 1012.3 0.0
18/03:00am 23.5 25.7 20.4 83 2.0 SSW 9 11 5 6 1012.3 1012.2 0.0
18/02:37am 23.7 26.0 20.6 83 2.0 S 9 9 5 5 1012.2 1012.1 0.0
18/02:30am 23.7 26.0 20.6 83 2.0 S 9 9 5 5 1012.2 1012.1 0.0
18/02:08am 23.7 25.9 20.4 82 2.1 SSE 9 11 5 6 1012.3 1012.2 0.0
18/02:00am 24.0 26.2 20.5 81 2.3 SSE 9 11 5 6 1012.5 1012.4 0.0
18/01:37am 24.0 26.3 20.7 82 2.2 SE 9 11 5 6 1012.8 1012.7 0.0
18/01:30am 23.9 26.2 20.6 82 2.2 SE 9 11 5 6 1012.9 1012.8 0.0
18/01:00am 24.1 25.8 20.2 79 2.5 SSE 11 13 6 7 1013.1 1013.0 0.0
18/12:30am 24.5 26.9 20.8 80 2.4 SE 9 11 5 6 1013.1 1013.0 0.0
18/12:00am 24.7 27.1 20.8 79 2.6 ESE 9 11 5 6 1013.1 1013.0 0.0
 
Date/Time
EST
Temp
°C
App
Temp
°C
Dew
Point
°C
Rel
Hum
%
Delta-T
°C
Wind Press
QNH
hPa
Press
MSL
hPa
Rain since
9am
mm
Dir  Spd
km/h
Gust
km/h
Spd
kts
Gust
kts
17/11:30pm 24.9 26.8 20.6 77 2.8 ESE 11 15 6 8 1013.5 1013.4 0.0
17/11:00pm 24.8 27.0 20.5 77 2.8 E 9 13 5 7 1013.8 1013.7 0.0
17/10:30pm 24.8 26.6 20.3 76 2.9 E 11 13 6 7 1014.1 1014.0 0.0
17/10:00pm 25.0 26.6 20.0 74 3.2 ESE 11 15 6 8 1014.1 1014.0 0.0
17/09:30pm 25.0 26.4 19.6 72 3.5 E 11 13 6 7 1014.2 1014.1 0.0
17/09:00pm 25.1 26.9 19.5 71 3.6 E 9 13 5 7 1014.1 1014.0 0.0
17/08:30pm 24.4 25.2 19.0 72 3.4 ENE 13 17 7 9 1013.7 1013.6 0.0
17/08:00pm 24.7 25.3 18.6 69 3.9 ENE 13 17 7 9 1013.3 1013.2 0.0
17/07:30pm 25.0 24.9 18.7 68 4.0 NE 17 20 9 11 1013.2 1013.1 0.0
17/07:00pm 25.3 24.8 18.7 67 4.2 NNE 19 24 10 13 1013.3 1013.2 0.0
17/06:30pm 25.8 25.6 18.5 64 4.6 NE 17 22 9 12 1012.9 1012.8 0.0
17/06:00pm 26.7 25.7 18.0 59 5.5 NE 20 24 11 13 1012.3 1012.2 0.0
17/05:30pm 28.0 26.6 16.6 50 7.1 NE 19 24 10 13 1012.1 1012.0 0.0
17/05:00pm 28.7 27.7 16.6 48 7.6 NE 17 26 9 14 1011.8 1011.7 0.0
17/04:30pm 29.0 28.0 15.5 44 8.3 ENE 15 24 8 13 1011.6 1011.5 0.0
17/04:00pm 28.9 28.1 16.1 46 7.9 ENE 15 20 8 11 1011.7 1011.6 0.0
17/03:30pm 28.8 28.0 16.0 45 7.9 ENE 15 22 8 12 1012.2 1012.1 0.0
17/03:00pm 28.8 26.8 13.9 40 8.9 ENE 17 24 9 13 1012.4 1012.3 0.0
17/02:30pm 29.0 27.9 13.2 37 9.4 NNE 11 20 6 11 1012.7 1012.6 0.0
17/02:00pm 29.1 27.2 12.9 37 9.6 ESE 15 20 8 11 1013.0 1012.9 0.0
17/01:30pm 28.6 26.6 11.6 34 9.8 NE 13 22 7 12 1013.3 1013.2 0.0
17/01:00pm 29.1 27.9 14.1 40 9.0 ENE 13 20 7 11 1013.3 1013.2 0.0
17/12:30pm 28.5 27.5 14.7 43 8.4 E 13 24 7 13 1013.5 1013.4 0.0
17/12:00pm 28.3 27.5 15.2 44 8.0 E 13 19 7 10 1013.5 1013.4 0.0
17/11:30am 28.2 28.1 16.1 47 7.5 E 11 19 6 10 1013.9 1013.8 0.0
17/11:00am 27.8 27.7 17.0 51 6.8 ESE 13 22 7 12 1013.9 1013.8 0.0
17/10:30am 27.1 26.5 16.7 53 6.5 ESE 15 22 8 12 1014.0 1013.9 0.0
17/10:00am 26.5 25.4 16.4 53 6.2 E 17 26 9 14 1014.3 1014.2 0.0
17/09:30am 25.9 24.9 16.5 56 5.8 ESE 17 24 9 13 1014.3 1014.2 0.0
17/09:00am 25.7 24.9 17.1 59 5.3 ESE 17 26 9 14 1014.0 1013.9 20.6
17/08:30am 24.9 24.0 16.9 61 4.9 SE 17 22 9 12 1013.8 1013.7 20.6
17/08:00am 24.6 24.2 17.1 63 4.6 SE 15 19 8 10 1013.7 1013.6 20.6
17/07:30am 24.2 24.0 16.7 63 4.6 SE 13 19 7 10 1013.7 1013.6 20.6
17/07:00am 24.0 24.1 16.5 63 4.6 SE 11 15 6 8 1013.4 1013.3 20.6
17/06:30am 23.8 24.0 16.8 65 4.3 SE 11 15 6 8 1013.2 1013.1 20.6
17/06:00am 23.5 24.2 17.0 67 4.0 SSE 9 11 5 6 1012.7 1012.6 20.6
17/05:30am 23.3 25.5 17.5 70 3.6 SE 2 6 1 3 1012.5 1012.4 20.6
17/05:00am 23.3 24.6 17.1 68 3.8 SE 6 13 3 7 1012.2 1012.1 20.6
17/04:30am 23.1 23.8 17.1 69 3.7 SSE 9 13 5 7 1011.9 1011.8 20.6
17/04:00am 22.8 22.8 17.3 71 3.4 SSE 13 17 7 9 1011.7 1011.6 20.6
17/03:30am 23.0 24.5 17.7 72 3.3 S 6 11 3 6 1011.7 1011.6 20.6
17/03:00am 22.8 25.1 17.7 73 3.2 SW 2 7 1 4 1011.6 1011.5 20.6
17/02:30am 23.1 24.8 18.0 73 3.2 S 6 9 3 5 1011.6 1011.5 20.6
17/02:00am 23.2 24.4 17.4 70 3.6 SSE 7 11 4 6 1011.4 1011.3 20.6
17/01:30am 23.3 23.7 17.3 69 3.7 SSE 11 15 6 8 1011.3 1011.2 20.6
17/01:00am 23.4 24.3 17.6 70 3.6 SSE 9 13 5 7 1011.6 1011.5 20.6
17/12:30am 23.4 24.2 17.2 68 3.8 SE 9 13 5 7 1011.6 1011.5 20.6
17/12:00am 23.3 24.3 17.7 71 3.5 SSE 9 13 5 7 1011.6 1011.5 20.6
 
Date/Time
EST
Temp
°C
App
Temp
°C
Dew
Point
°C
Rel
Hum
%
Delta-T
°C
Wind Press
QNH
hPa
Press
MSL
hPa
Rain since
9am
mm
Dir  Spd
km/h
Gust
km/h
Spd
kts
Gust
kts
16/11:30pm 23.7 24.8 18.1 71 3.5 SE 9 13 5 7 1011.9 1011.8 20.6
16/11:00pm 23.7 25.0 18.4 72 3.3 SE 9 13 5 7 1011.7 1011.6 20.6
16/10:30pm 23.5 24.8 18.4 73 3.2 SE 9 17 5 9 1011.7 1011.6 20.6
16/10:00pm 23.2 23.5 18.7 76 2.8 SE 15 20 8 11 1011.6 1011.5 20.6
16/09:30pm 23.4 23.5 19.1 77 2.7 ESE 17 26 9 14 1011.4 1011.3 20.6
16/09:00pm 23.4 22.7 19.5 79 2.5 SE 22 32 12 17 1011.2 1011.1 20.6
16/08:30pm 23.6 23.0 19.7 79 2.5 ESE 22 30 12 16 1010.9 1010.8 20.6
16/08:00pm 23.9 23.0 19.8 78 2.6 SE 24 33 13 18 1010.6 1010.5 20.6
16/07:30pm 24.6 23.7 19.9 75 3.0 ESE 24 35 13 19 1010.1 1010.0 20.6
16/07:00pm 24.8 24.5 20.3 76 2.9 ESE 22 30 12 16 1010.0 1009.9 20.6
16/06:30pm 25.0 24.7 20.3 75 3.1 ESE 22 30 12 16 1009.5 1009.4 20.6
16/06:00pm 25.3 24.7 20.5 75 3.1 E 24 35 13 19 1008.4 1008.3 20.6
16/05:30pm 25.8 24.6 20.8 74 3.3 E 28 39 15 21 1007.5 1007.4 20.6
16/05:00pm 25.5 24.5 21.2 77 2.8 ESE 28 39 15 21 1007.4 1007.3 20.6
16/04:30pm 25.7 25.4 21.8 79 2.6 ESE 26 37 14 20 1007.2 1007.1 20.6
16/04:00pm 26.0 27.3 22.7 82 2.2 ENE 20 32 11 17 1006.5 1006.4 20.6
16/03:35pm 24.9 26.0 22.4 86 1.7 ENE 20 30 11 16 1006.8 1006.7 20.6
16/03:31pm 24.7 25.8 22.4 87 1.5 ENE 20 30 11 16 1006.7 1006.6 20.6
16/03:30pm 24.9 26.4 23.0 89 1.3 E 20 28 11 15 1006.7 1006.6 20.6
16/03:00pm 24.3 23.7 22.0 87 1.5 SE 28 39 15 21 1006.5 1006.4 12.4
16/02:44pm 26.0 25.1 21.4 76 3.1 SE 28 37 15 20 1006.3 1006.2 1.8
16/02:30pm 28.5 26.8 20.5 62 5.3 ESE 30 46 16 25 1005.5 1005.4 0.0
16/02:21pm 30.3 30.1 20.5 55 6.5 ENE 22 30 12 16 1005.2 1005.1 0.0
16/02:00pm 30.4 30.1 20.3 54 6.7 ENE 22 30 12 16 1005.5 1005.4 0.0
16/01:34pm 31.8 32.9 20.4 51 7.6 E 15 33 8 18 1005.3 1005.2 0.0
16/01:30pm 33.9 35.4 18.0 39 10.3 E 7 15 4 8 1005.3 1005.2 0.0
16/01:00pm 33.7 34.5 18.2 39 10.1 SW 11 26 6 14 1005.4 1005.3 0.0
16/12:30pm 33.6 34.6 17.7 38 10.2 WSW 9 19 5 10 1005.6 1005.5 0.0
16/12:00pm 33.3 34.3 19.4 44 9.2 NW 13 17 7 9 1005.8 1005.7 0.0
16/11:30am 32.2 32.9 18.8 45 8.7 SW 13 20 7 11 1006.3 1006.2 0.0
16/11:00am 32.2 33.4 19.8 48 8.2 W 13 22 7 12 1006.4 1006.3 0.0
16/10:30am 31.3 31.6 19.6 49 7.7 WNW 17 28 9 15 1006.6 1006.5 0.0
16/10:00am 30.5 31.2 18.9 50 7.5 WNW 13 22 7 12 1006.9 1006.8 0.0
16/09:30am 29.0 30.7 19.3 55 6.3 WNW 9 15 5 8 1007.2 1007.1 0.0
16/09:00am 28.2 30.4 19.7 60 5.6 W 7 11 4 6 1007.4 1007.3 0.0
16/08:30am 27.7 30.2 20.3 64 4.9 NW 7 15 4 8 1007.5 1007.4 0.0
16/08:00am 27.0 29.2 19.6 64 4.8 NW 7 11 4 6 1007.7 1007.6 0.0
16/07:30am 26.2 28.7 19.8 68 4.2 N 6 9 3 5 1007.9 1007.8 0.0
16/07:00am 24.4 26.6 20.3 78 2.7 NNW 9 11 5 6 1007.8 1007.7 0.0
16/06:30am 24.2 26.1 20.5 80 2.4 NNW 11 13 6 7 1008.0 1007.9 0.0
16/06:00am 23.6 27.6 20.5 83 2.0 CALM 0 0 0 0 1007.3 1007.2 0.0
16/05:30am 23.3 25.1 20.4 84 1.9 N 11 15 6 8 1007.0 1006.9 0.0
16/05:00am 23.1 24.4 20.2 84 1.9 N 13 15 7 8 1007.0 1006.9 0.0
16/04:30am 23.4 25.9 20.2 82 2.1 NNW 7 11 4 6 1007.0 1006.9 0.0

Other formats

Comma delimited format used in spreadsheet applications
http://www.bom.gov.au/fwo/IDQ60801/IDQ60801.94575.axf

JavaScript Object Notation format (JSON) in row-major order
http://www.bom.gov.au/fwo/IDQ60801/IDQ60801.94575.json

Data quality

Most of these data are generated automatically and are frequently updated. Quality checks on data are not normally performed. It is possible for incorrect values to appear. Refer to information at About Latest Weather Observations and please check the disclaimer before using these data.